createdAt,value
2023-04-17T00:02:25.719Z,14.73
2023-04-17T00:04:54.415Z,16.70
2023-04-17T00:07:24.186Z,19.23
2023-04-17T00:09:50.897Z,16.70
2023-04-17T00:12:17.676Z,17.57
2023-04-17T00:14:44.202Z,15.37
2023-04-17T00:17:11.010Z,17.70
2023-04-17T00:19:37.911Z,15.83
2023-04-17T00:22:04.451Z,18.53
2023-04-17T00:24:31.011Z,20.83
2023-04-17T00:26:58.255Z,17.87
2023-04-17T00:29:25.149Z,16.97
2023-04-17T00:31:51.737Z,17.90
2023-04-17T00:34:18.248Z,18.87
2023-04-17T00:36:44.696Z,20.03
2023-04-17T00:39:11.525Z,19.83
2023-04-17T00:41:38.410Z,18.63
2023-04-17T00:44:05.101Z,21.70
2023-04-17T00:46:32.017Z,23.00
2023-04-17T00:48:59.067Z,18.90
2023-04-17T00:51:25.793Z,18.47
2023-04-17T00:53:52.538Z,25.33
2023-04-17T00:56:19.054Z,18.83
2023-04-17T00:58:45.827Z,21.00
2023-04-17T01:01:12.512Z,22.43
2023-04-17T01:03:39.223Z,18.27
2023-04-17T01:06:06.144Z,23.10
2023-04-17T01:08:44.255Z,17.53
2023-04-17T01:11:11.227Z,21.23
2023-04-17T01:13:45.354Z,20.50
2023-04-17T01:16:12.055Z,23.67
2023-04-17T01:18:38.549Z,23.83
2023-04-17T01:21:05.159Z,21.73
2023-04-17T01:23:42.264Z,24.10
2023-04-17T01:26:08.867Z,16.97
2023-04-17T01:28:36.991Z,21.77
2023-04-17T01:31:03.564Z,20.27
2023-04-17T01:33:30.076Z,22.63
2023-04-17T01:35:56.692Z,21.03
2023-04-17T01:38:23.233Z,19.67
2023-04-17T01:40:49.722Z,15.70
2023-04-17T01:43:16.303Z,24.30
2023-04-17T01:45:43.137Z,26.93
2023-04-17T01:48:11.173Z,19.70
2023-04-17T01:50:37.666Z,18.20
2023-04-17T01:53:04.150Z,21.03
2023-04-17T01:55:30.740Z,17.57
2023-04-17T01:57:58.382Z,19.53
2023-04-17T02:00:25.003Z,20.67
2023-04-17T02:02:52.679Z,22.23
2023-04-17T02:05:19.441Z,17.77
2023-04-17T02:07:45.924Z,19.43
2023-04-17T02:10:12.951Z,22.30
2023-04-17T02:12:39.427Z,23.13
2023-04-17T02:15:06.336Z,28.50
2023-04-17T02:17:33.110Z,16.47
2023-04-17T02:19:59.689Z,19.50
2023-04-17T02:22:26.253Z,20.10
2023-04-17T02:24:52.763Z,19.37
2023-04-17T02:27:19.877Z,19.73
2023-04-17T02:29:46.323Z,28.30
2023-04-17T02:32:14.756Z,18.90
2023-04-17T02:34:41.436Z,17.20
2023-04-17T02:37:08.149Z,26.97
2023-04-17T02:39:36.303Z,24.83
2023-04-17T02:42:03.144Z,21.20
2023-04-17T02:44:30.092Z,19.70
2023-04-17T02:46:56.661Z,23.13
2023-04-17T02:49:23.587Z,22.33
2023-04-17T02:51:50.296Z,19.63
2023-04-17T02:54:17.349Z,22.27
2023-04-17T02:56:44.044Z,23.00
2023-04-17T02:59:10.886Z,24.63
2023-04-17T03:01:39.288Z,22.00
2023-04-17T03:04:06.432Z,19.40
2023-04-17T03:06:33.519Z,26.00
2023-04-17T03:09:00.792Z,26.17
2023-04-17T03:11:27.557Z,27.57
2023-04-17T03:13:54.051Z,23.07
2023-04-17T03:16:21.857Z,25.97
2023-04-17T03:18:48.810Z,25.00
2023-04-17T03:21:15.356Z,23.50
2023-04-17T03:23:42.104Z,22.80
2023-04-17T03:26:09.414Z,22.40
2023-04-17T03:28:36.702Z,29.30
2023-04-17T03:31:04.483Z,26.40
2023-04-17T03:33:33.186Z,24.53
2023-04-17T03:35:59.685Z,27.40
2023-04-17T03:38:26.147Z,24.40
2023-04-17T03:40:53.670Z,25.73
2023-04-17T03:43:22.938Z,23.80
2023-04-17T03:45:50.038Z,22.80
2023-04-17T03:48:17.000Z,26.10
2023-04-17T03:50:45.011Z,28.20
2023-04-17T03:53:12.163Z,37.47
2023-04-17T03:55:39.024Z,33.70
2023-04-17T03:58:06.182Z,34.27
2023-04-17T04:00:33.581Z,26.67
2023-04-17T04:03:06.454Z,29.63
2023-04-17T04:05:38.995Z,21.10
2023-04-17T04:08:07.382Z,27.90
2023-04-17T04:10:45.630Z,23.47
2023-04-17T04:13:16.515Z,26.13
2023-04-17T04:15:48.545Z,24.63
2023-04-17T04:18:17.802Z,21.70
2023-04-17T04:20:44.634Z,21.37
2023-04-17T04:23:20.840Z,23.13
2023-04-17T04:25:49.717Z,29.97
2023-04-17T04:28:33.466Z,24.03
2023-04-17T04:31:02.620Z,25.03
2023-04-17T04:33:35.215Z,23.63
2023-04-17T04:36:02.531Z,22.77
2023-04-17T04:38:31.105Z,26.47
2023-04-17T04:41:01.649Z,20.47
2023-04-17T04:43:29.938Z,25.57
2023-04-17T04:45:56.583Z,21.80
2023-04-17T04:48:29.190Z,28.00
2023-04-17T04:50:55.811Z,18.80
2023-04-17T04:53:22.351Z,20.90
2023-04-17T04:55:54.785Z,24.97
2023-04-17T04:58:21.578Z,24.10
2023-04-17T05:00:49.175Z,23.60
2023-04-17T05:03:23.727Z,22.30
2023-04-17T05:05:51.607Z,28.00
2023-04-17T05:08:21.346Z,27.57
2023-04-17T05:10:58.031Z,26.87
2023-04-17T05:13:24.531Z,26.27
2023-04-17T05:15:51.506Z,24.93
2023-04-17T05:18:21.084Z,26.97
2023-04-17T05:20:48.802Z,23.03
2023-04-17T05:23:15.555Z,23.63
2023-04-17T05:25:43.169Z,25.90
2023-04-17T05:28:10.066Z,24.50
2023-04-17T05:30:36.582Z,23.60
2023-04-17T05:33:12.427Z,24.47
2023-04-17T05:35:46.648Z,21.43
2023-04-17T05:38:13.716Z,24.60
2023-04-17T05:40:40.246Z,22.20
2023-04-17T05:43:08.138Z,26.30
2023-04-17T05:45:35.304Z,27.83
2023-04-17T05:48:01.891Z,30.57
2023-04-17T05:50:28.829Z,25.03
2023-04-17T05:52:56.989Z,21.20
2023-04-17T05:55:26.712Z,24.30
2023-04-17T05:57:58.140Z,22.37
2023-04-17T06:00:24.954Z,25.73
2023-04-17T06:02:57.653Z,26.23
2023-04-17T06:05:31.963Z,27.07
2023-04-17T06:07:58.536Z,22.17
2023-04-17T06:10:25.477Z,22.73
2023-04-17T06:12:52.210Z,26.40
2023-04-17T06:15:18.769Z,19.00
2023-04-17T06:17:45.314Z,26.83
2023-04-17T06:20:11.913Z,22.60
2023-04-17T06:22:38.892Z,27.60
2023-04-17T06:25:05.955Z,23.00
2023-04-17T06:27:34.458Z,22.13
2023-04-17T06:30:03.309Z,22.80
2023-04-17T06:32:33.315Z,25.23
2023-04-17T06:35:00.038Z,24.60
2023-04-17T06:37:38.665Z,20.40
2023-04-17T06:40:05.532Z,25.27
2023-04-17T06:42:35.225Z,20.80
2023-04-17T06:45:02.623Z,23.77
2023-04-17T06:47:30.647Z,25.23
2023-04-17T06:49:59.691Z,19.20
2023-04-17T06:52:26.227Z,25.73
2023-04-17T06:54:55.992Z,24.23
2023-04-17T06:57:22.575Z,19.20
2023-04-17T06:59:49.087Z,24.57
2023-04-17T07:02:16.234Z,28.63
2023-04-17T07:04:42.913Z,24.23
2023-04-17T07:07:09.463Z,19.23
2023-04-17T07:09:35.919Z,20.67
2023-04-17T07:12:03.691Z,18.60
2023-04-17T07:14:30.540Z,22.43
2023-04-17T07:16:57.033Z,18.63
2023-04-17T07:19:23.629Z,17.30
2023-04-17T07:21:50.540Z,18.70
2023-04-17T07:24:17.382Z,17.00
2023-04-17T07:26:44.359Z,14.30
2023-04-17T07:29:11.023Z,13.43
2023-04-17T07:31:38.458Z,15.60
2023-04-17T07:34:05.155Z,21.40
2023-04-17T07:36:31.612Z,17.53
2023-04-17T07:38:58.090Z,20.20
2023-04-17T07:41:24.578Z,20.17
2023-04-17T07:43:51.039Z,13.73
2023-04-17T07:46:18.211Z,16.20
2023-04-17T07:48:44.747Z,18.67
2023-04-17T07:51:11.607Z,14.70
2023-04-17T07:53:38.644Z,19.77
2023-04-17T07:56:06.328Z,18.13
2023-04-17T07:58:35.596Z,15.00
2023-04-17T08:01:05.676Z,13.27
2023-04-17T08:03:32.427Z,13.20
2023-04-17T08:05:59.068Z,19.97
2023-04-17T08:08:25.829Z,13.53
2023-04-17T08:10:52.411Z,15.37
2023-04-17T08:13:19.312Z,12.90
2023-04-17T08:15:46.625Z,17.87
2023-04-17T08:18:13.827Z,13.77
2023-04-17T08:20:40.385Z,12.47
2023-04-17T08:23:07.202Z,13.33
2023-04-17T08:25:33.771Z,13.20
2023-04-17T08:28:00.334Z,13.13
2023-04-17T08:30:26.841Z,13.23
2023-04-17T08:32:55.543Z,14.57
2023-04-17T08:35:22.432Z,13.87
2023-04-17T08:37:49.200Z,12.17
2023-04-17T08:40:17.000Z,15.67
2023-04-17T08:42:43.545Z,18.73
2023-04-17T08:45:11.492Z,17.03
2023-04-17T08:47:42.038Z,14.20
2023-04-17T08:50:16.487Z,17.00
2023-04-17T08:52:50.136Z,12.43
2023-04-17T08:55:17.605Z,12.90
2023-04-17T08:57:57.044Z,9.40
2023-04-17T09:00:24.404Z,10.73
2023-04-17T09:02:51.660Z,13.03
2023-04-17T09:05:19.210Z,13.00
2023-04-17T09:07:46.262Z,18.30
2023-04-17T09:10:13.179Z,16.73
2023-04-17T09:12:41.929Z,13.40
2023-04-17T09:15:15.925Z,10.07
2023-04-17T09:17:42.500Z,11.80
2023-04-17T09:20:11.981Z,15.67
2023-04-17T09:22:40.264Z,16.90
2023-04-17T09:25:19.874Z,11.43
2023-04-17T09:27:46.800Z,11.87
2023-04-17T09:30:13.585Z,13.43
2023-04-17T09:32:40.663Z,21.40
2023-04-17T09:35:07.478Z,10.33
2023-04-17T09:37:48.641Z,12.73
2023-04-17T09:40:15.415Z,14.53
2023-04-17T09:42:55.595Z,17.13
2023-04-17T09:45:22.550Z,11.27
2023-04-17T09:47:50.103Z,20.17
2023-04-17T09:50:18.376Z,10.53
2023-04-17T09:52:46.947Z,10.97
2023-04-17T09:55:16.168Z,13.10
2023-04-17T09:57:44.566Z,14.60
2023-04-17T10:00:14.743Z,12.73
2023-04-17T10:02:42.274Z,12.77
2023-04-17T10:05:11.058Z,13.87
2023-04-17T10:07:37.923Z,11.17
2023-04-17T10:10:09.202Z,11.63
2023-04-17T10:12:37.133Z,10.87
2023-04-17T10:15:04.756Z,14.27
2023-04-17T10:17:32.633Z,12.60
2023-04-17T10:20:20.360Z,15.93
2023-04-17T10:22:56.772Z,15.93
2023-04-17T10:25:24.134Z,9.77
2023-04-17T10:27:51.839Z,13.60
2023-04-17T10:33:09.935Z,15.40
2023-04-17T10:35:36.813Z,13.93
2023-04-17T10:38:04.723Z,12.53
2023-04-17T10:40:32.146Z,13.03
2023-04-17T10:43:17.086Z,9.43
2023-04-17T10:45:53.147Z,13.77
2023-04-17T10:48:26.614Z,10.90
2023-04-17T10:50:53.339Z,10.43
2023-04-17T10:53:40.340Z,14.97
2023-04-17T10:56:07.168Z,13.10
2023-04-17T10:58:37.148Z,13.80
2023-04-17T11:01:09.067Z,10.77
2023-04-17T11:03:37.362Z,10.20
2023-04-17T11:06:04.483Z,12.03
2023-04-17T11:08:30.962Z,12.00
2023-04-17T11:10:57.681Z,17.90
2023-04-17T11:13:24.413Z,10.83
2023-04-17T11:15:52.186Z,9.27
2023-04-17T11:18:20.619Z,11.33
2023-04-17T11:20:47.157Z,8.80
2023-04-17T11:23:13.693Z,12.50
2023-04-17T11:25:40.146Z,10.70
2023-04-17T11:28:06.858Z,12.37
2023-04-17T11:30:34.829Z,8.30
2023-04-17T11:33:02.574Z,13.73
2023-04-17T11:35:30.393Z,9.73
2023-04-17T11:38:06.819Z,10.27
2023-04-17T11:40:33.470Z,9.83
2023-04-17T11:43:07.972Z,10.87
2023-04-17T11:45:35.377Z,8.37
2023-04-17T11:48:02.543Z,9.93
2023-04-17T11:50:30.708Z,9.93
2023-04-17T11:53:00.523Z,9.60
2023-04-17T11:55:30.428Z,13.53
2023-04-17T11:57:58.342Z,16.23
2023-04-17T12:00:29.157Z,15.53
2023-04-17T12:02:56.874Z,8.90
2023-04-17T12:05:23.932Z,9.60
2023-04-17T12:08:04.281Z,11.80
2023-04-17T12:10:36.967Z,12.33
2023-04-17T12:13:03.536Z,8.10
2023-04-17T12:15:29.982Z,11.40
2023-04-17T12:17:56.531Z,12.00
2023-04-17T12:20:24.775Z,6.93
2023-04-17T12:22:53.064Z,9.43
2023-04-17T12:25:19.577Z,7.47
2023-04-17T12:27:48.794Z,7.20
2023-04-17T12:30:16.436Z,9.50
2023-04-17T12:32:48.514Z,6.40
2023-04-17T12:35:15.933Z,10.53
2023-04-17T12:37:48.478Z,6.33
2023-04-17T12:40:16.826Z,9.70
2023-04-17T12:42:49.219Z,7.23
2023-04-17T12:45:16.942Z,6.90
2023-04-17T12:47:43.725Z,6.20
2023-04-17T12:50:11.801Z,7.60
2023-04-17T12:52:39.049Z,8.37
2023-04-17T12:55:07.490Z,8.30
2023-04-17T12:57:35.421Z,6.10
2023-04-17T13:00:02.098Z,6.73
2023-04-17T13:02:28.811Z,9.57
2023-04-17T13:04:56.309Z,9.73
2023-04-17T13:07:22.876Z,13.23
2023-04-17T13:09:49.411Z,17.23
2023-04-17T13:12:16.482Z,11.60
2023-04-17T13:14:43.104Z,6.90
2023-04-17T13:17:09.565Z,15.07
2023-04-17T13:19:36.180Z,10.00
2023-04-17T13:22:02.713Z,11.10
2023-04-17T13:24:29.222Z,9.47
2023-04-17T13:26:58.111Z,10.33
2023-04-17T13:29:25.543Z,11.93
2023-04-17T13:31:52.007Z,7.17
2023-04-17T13:34:18.613Z,13.60
2023-04-17T13:36:45.735Z,8.43
2023-04-17T13:39:12.525Z,7.83
2023-04-17T13:41:39.383Z,7.80
2023-04-17T13:44:06.013Z,12.30
2023-04-17T13:46:33.107Z,8.00
2023-04-17T13:49:00.309Z,10.40
2023-04-17T13:51:27.360Z,6.30
2023-04-17T13:53:53.888Z,9.83
2023-04-17T13:56:23.332Z,7.23
2023-04-17T13:58:50.414Z,12.23
2023-04-17T14:01:17.380Z,7.43
2023-04-17T14:03:45.968Z,9.90
2023-04-17T14:06:12.984Z,7.53
2023-04-17T14:08:40.636Z,8.03
2023-04-17T14:11:08.129Z,7.77
2023-04-17T14:13:34.647Z,11.50
2023-04-17T14:16:01.354Z,9.17
2023-04-17T14:18:28.498Z,6.10
2023-04-17T14:20:55.420Z,5.03
2023-04-17T14:23:21.878Z,21.50
2023-04-17T14:25:48.707Z,6.73
2023-04-17T14:28:15.279Z,5.27
2023-04-17T14:30:41.708Z,9.40
2023-04-17T14:33:08.120Z,8.80
2023-04-17T14:35:34.591Z,7.53
2023-04-17T14:38:04.721Z,9.63
2023-04-17T14:40:31.217Z,5.53
2023-04-17T14:42:57.667Z,8.83
2023-04-17T14:45:24.179Z,11.73
2023-04-17T14:47:50.803Z,11.67
2023-04-17T14:50:17.586Z,3.57
2023-04-17T14:52:44.024Z,10.20
2023-04-17T14:55:11.472Z,11.10
2023-04-17T14:57:37.932Z,5.73
2023-04-17T15:00:04.719Z,7.33
2023-04-17T15:02:38.084Z,7.57
2023-04-17T15:05:05.373Z,5.40
2023-04-17T15:07:31.940Z,8.23
2023-04-17T15:09:58.549Z,10.27
2023-04-17T15:12:25.136Z,8.90
2023-04-17T15:14:52.276Z,7.73
2023-04-17T15:17:18.885Z,7.67
2023-04-17T15:19:45.445Z,5.83
2023-04-17T15:22:11.904Z,7.50
2023-04-17T15:24:38.592Z,10.50
2023-04-17T15:27:05.063Z,8.90
2023-04-17T15:29:31.626Z,4.80
2023-04-17T15:31:59.063Z,4.77
2023-04-17T15:34:25.654Z,6.17
2023-04-17T15:36:52.123Z,4.27
2023-04-17T15:39:18.572Z,5.20
2023-04-17T15:41:45.387Z,8.20
2023-04-17T15:44:11.889Z,7.27
2023-04-17T15:46:38.429Z,4.60
2023-04-17T15:49:09.124Z,4.60
2023-04-17T15:51:49.280Z,6.50
2023-04-17T15:54:16.331Z,10.63
2023-04-17T15:56:43.525Z,4.57
2023-04-17T15:59:09.973Z,8.00
2023-04-17T16:01:36.496Z,8.67
2023-04-17T16:04:03.602Z,10.03
2023-04-17T16:06:30.221Z,7.73
2023-04-17T16:08:56.775Z,4.63
2023-04-17T16:11:24.056Z,10.90
2023-04-17T16:13:50.552Z,5.60
2023-04-17T16:16:17.150Z,6.83
2023-04-17T16:18:45.946Z,8.50
2023-04-17T16:21:12.961Z,7.63
2023-04-17T16:23:39.625Z,5.03
2023-04-17T16:26:06.476Z,5.60
2023-04-17T16:28:33.138Z,12.13
2023-04-17T16:30:59.664Z,5.53
2023-04-17T16:33:26.214Z,22.73
2023-04-17T16:35:52.868Z,5.17
2023-04-17T16:38:19.370Z,4.50
2023-04-17T16:40:45.868Z,5.00
2023-04-17T16:43:12.338Z,9.10
2023-04-17T16:45:38.900Z,6.30
2023-04-17T16:48:05.691Z,6.30
2023-04-17T16:50:32.254Z,8.83
2023-04-17T16:52:58.723Z,6.13
2023-04-17T16:55:26.655Z,10.43
2023-04-17T16:57:53.210Z,15.27
2023-04-17T17:00:19.833Z,6.77
2023-04-17T17:02:46.566Z,6.97
2023-04-17T17:05:15.312Z,13.03
2023-04-17T17:07:41.816Z,10.17
2023-04-17T17:10:08.963Z,14.50
2023-04-17T17:12:35.587Z,10.37
2023-04-17T17:15:03.856Z,14.20
2023-04-17T17:17:30.896Z,12.77
2023-04-17T17:19:57.366Z,10.90
2023-04-17T17:22:23.871Z,15.60
2023-04-17T17:24:50.335Z,9.40
2023-04-17T17:27:16.807Z,8.43
2023-04-17T17:29:43.263Z,18.07
2023-04-17T17:32:11.660Z,18.23
2023-04-17T17:34:38.243Z,14.73
2023-04-17T17:37:04.794Z,14.43
2023-04-17T17:39:31.264Z,11.70
2023-04-17T17:41:57.807Z,12.63
2023-04-17T17:44:24.666Z,12.97
2023-04-17T17:46:51.176Z,14.90
2023-04-17T17:49:17.681Z,12.30
2023-04-17T17:51:44.420Z,13.10
2023-04-17T17:54:11.782Z,13.70
2023-04-17T17:56:38.474Z,14.13
2023-04-17T17:59:04.908Z,16.23
2023-04-17T18:01:31.393Z,12.43
2023-04-17T18:03:58.241Z,11.73
2023-04-17T18:06:25.906Z,10.33
2023-04-17T18:08:52.911Z,9.43
2023-04-17T18:11:19.422Z,6.50
2023-04-17T18:13:45.879Z,6.47
2023-04-17T18:16:12.444Z,6.60
2023-04-17T18:18:39.102Z,8.90
2023-04-17T18:21:09.204Z,6.20
2023-04-17T18:23:35.670Z,6.10
2023-04-17T18:26:02.955Z,7.23
2023-04-17T18:28:29.661Z,5.30
2023-04-17T18:30:56.201Z,6.17
2023-04-17T18:33:22.729Z,5.10
2023-04-17T18:35:49.309Z,5.47
2023-04-17T18:38:16.657Z,5.20
2023-04-17T18:40:43.349Z,4.83
2023-04-17T18:43:10.074Z,5.73
2023-04-17T18:45:36.898Z,5.63
2023-04-17T18:48:03.500Z,5.43
2023-04-17T18:50:30.899Z,5.80
2023-04-17T18:52:57.507Z,6.70
2023-04-17T18:55:24.094Z,4.77
2023-04-17T18:57:50.820Z,7.53
2023-04-17T19:00:17.526Z,12.20
2023-04-17T19:02:44.074Z,5.80
2023-04-17T19:05:10.696Z,4.80
2023-04-17T19:07:37.668Z,6.20
2023-04-17T19:10:04.459Z,9.93
2023-04-17T19:12:31.928Z,5.57
2023-04-17T19:14:58.414Z,4.60
2023-04-17T19:17:25.507Z,4.80
2023-04-17T19:19:52.046Z,5.93
2023-04-17T19:22:18.592Z,4.40
2023-04-17T19:24:49.498Z,5.20
2023-04-17T19:27:16.870Z,4.87
2023-04-17T19:29:43.337Z,4.57
2023-04-17T19:32:10.718Z,3.73
2023-04-17T19:34:37.350Z,4.73
2023-04-17T19:37:03.951Z,4.20
2023-04-17T19:39:31.423Z,3.83
2023-04-17T19:41:58.029Z,4.40
2023-04-17T19:44:27.327Z,4.27
2023-04-17T19:46:54.889Z,4.30
2023-04-17T19:49:21.326Z,3.77
2023-04-17T19:51:48.109Z,3.53
2023-04-17T19:54:15.777Z,3.03
2023-04-17T19:56:42.544Z,3.57
2023-04-17T19:59:12.526Z,3.20
2023-04-17T20:01:40.472Z,3.10
2023-04-17T20:04:08.792Z,3.07
2023-04-17T20:06:35.344Z,3.03
2023-04-17T20:09:03.353Z,2.40
2023-04-17T20:11:30.068Z,4.00
2023-04-17T20:13:56.546Z,3.00
2023-04-17T20:16:24.034Z,2.63
2023-04-17T20:18:51.791Z,2.23
2023-04-17T20:21:18.655Z,3.10
2023-04-17T20:23:45.653Z,2.80
2023-04-17T20:26:12.111Z,3.00
2023-04-17T20:28:39.038Z,3.00
2023-04-17T20:31:05.622Z,2.70
2023-04-17T20:33:32.224Z,2.60
2023-04-17T20:35:58.808Z,2.30
2023-04-17T20:38:25.700Z,2.97
2023-04-17T20:40:52.267Z,2.53
2023-04-17T20:43:18.935Z,2.97
2023-04-17T20:45:45.660Z,2.37
2023-04-17T20:48:12.374Z,2.80
2023-04-17T20:50:38.871Z,3.40
2023-04-17T20:53:05.548Z,3.27
2023-04-17T20:55:32.030Z,3.00
2023-04-17T20:57:58.627Z,3.30
2023-04-17T21:00:25.129Z,2.70
2023-04-17T21:02:51.661Z,2.83
2023-04-17T21:05:19.213Z,3.30
2023-04-17T21:07:45.717Z,2.53
2023-04-17T21:10:12.174Z,3.30
2023-04-17T21:12:38.640Z,7.40
2023-04-17T21:15:05.348Z,2.83
2023-04-17T21:17:31.946Z,3.10
2023-04-17T21:19:58.469Z,2.80
2023-04-17T21:22:25.078Z,3.20
2023-04-17T21:24:51.638Z,3.37
2023-04-17T21:27:18.600Z,3.60
2023-04-17T21:29:45.533Z,3.33
2023-04-17T21:32:11.968Z,3.70
2023-04-17T21:34:38.627Z,2.80
2023-04-17T21:37:05.199Z,3.47
2023-04-17T21:39:33.299Z,3.90
2023-04-17T21:42:00.202Z,3.07
2023-04-17T21:44:26.713Z,2.70
2023-04-17T21:46:53.247Z,3.30
2023-04-17T21:49:20.459Z,3.50
2023-04-17T21:51:46.934Z,3.63
2023-04-17T21:54:13.631Z,3.03
2023-04-17T21:56:40.324Z,3.10
2023-04-17T21:59:06.827Z,2.60
2023-04-17T22:01:33.445Z,3.00
2023-04-17T22:04:00.016Z,3.30
2023-04-17T22:06:26.961Z,4.30
2023-04-17T22:08:53.472Z,4.93
2023-04-17T22:11:19.965Z,2.57
2023-04-17T22:13:46.961Z,3.60
2023-04-17T22:16:13.599Z,3.00
2023-04-17T22:18:40.178Z,3.37
2023-04-17T22:21:06.801Z,3.00
2023-04-17T22:23:33.291Z,3.10
2023-04-17T22:25:59.816Z,3.13
2023-04-17T22:28:28.589Z,3.43
2023-04-17T22:30:55.087Z,3.73
2023-04-17T22:33:22.016Z,3.63
2023-04-17T22:35:49.029Z,3.53
2023-04-17T22:38:16.009Z,3.90
2023-04-17T22:40:42.615Z,5.10
2023-04-17T22:43:09.198Z,3.57
2023-04-17T22:45:35.790Z,3.17
2023-04-17T22:48:02.518Z,4.00
2023-04-17T22:50:30.507Z,3.30
2023-04-17T22:52:57.037Z,3.23
2023-04-17T22:55:23.560Z,3.50
2023-04-17T22:57:50.006Z,3.30
2023-04-17T23:00:17.172Z,3.73
2023-04-17T23:02:43.702Z,3.63
2023-04-17T23:05:10.631Z,2.70
2023-04-17T23:07:37.213Z,4.00
2023-04-17T23:10:04.273Z,3.40
2023-04-17T23:12:31.324Z,3.40
2023-04-17T23:14:57.908Z,4.23
2023-04-17T23:17:24.432Z,4.70
2023-04-17T23:19:51.187Z,4.37
2023-04-17T23:22:17.714Z,4.07
2023-04-17T23:24:44.245Z,4.70
2023-04-17T23:27:10.998Z,3.90
2023-04-17T23:29:37.459Z,4.70
2023-04-17T23:32:04.512Z,4.40
2023-04-17T23:34:30.979Z,4.33
2023-04-17T23:36:57.486Z,4.30
2023-04-17T23:39:24.114Z,4.27
2023-04-17T23:41:50.840Z,3.80
2023-04-17T23:44:17.647Z,4.30
2023-04-17T23:46:44.283Z,4.37
2023-04-17T23:49:11.249Z,3.97
2023-04-17T23:51:37.705Z,4.37
2023-04-17T23:54:04.574Z,4.50
2023-04-17T23:56:31.289Z,4.87
2023-04-17T23:58:58.041Z,4.07
